Time;durP1;ratioP1;P1;durP2;ratioP2;P2;SDS_P1;SDS_P2;PMS_P1;PMS_P2;Temp;Humidity;BMP_temperature;BMP_pressure;BME280_temperature;BME280_humidity;BME280_pressure;Samples;Min_cycle;Max_cycle;Signal;HPM_P1;HPM_P2
2022/09/11 00:01:46;;;;;;;42.20;33.88;;;;;;;;;;4343030;33;20082;-65
2022/09/11 00:04:11;;;;;;;43.27;32.77;;;;;;;;;;4346390;33;20115;-63
2022/09/11 00:06:37;;;;;;;37.33;29.83;;;;;;;;;;4347496;33;20160;-64
2022/09/11 00:09:03;;;;;;;42.28;33.95;;;;;;;;;;4347390;33;20437;-64
2022/09/11 00:11:31;;;;;;;43.30;32.45;;;;;;;;;;4347063;33;20028;-64
2022/09/11 00:13:57;;;;;;;46.78;34.15;;;;;;;;;;4344969;33;20067;-63
2022/09/11 00:16:28;;;;;;;45.65;35.28;;;;;;;;;;4336902;33;20023;-64
2022/09/11 00:18:54;;;;;;;47.30;34.78;;;;;;;;;;4317911;33;20020;-63
2022/09/11 00:21:19;;;;;;;47.75;33.75;;;;;;;;;;4332583;33;20090;-63
2022/09/11 00:23:48;;;;;;;49.45;36.58;;;;;;;;;;4317803;33;20029;-63
2022/09/11 00:26:14;;;;;;;46.55;33.72;;;;;;;;;;4332799;33;20134;-64
2022/09/11 00:28:39;;;;;;;45.63;36.20;;;;;;;;;;4332789;33;20323;-64
2022/09/11 00:31:11;;;;;;;48.58;36.30;;;;;;;;;;4338262;33;20395;-65
2022/09/11 00:33:36;;;;;;;46.47;34.33;;;;;;;;;;4332572;33;20296;-63
2022/09/11 00:36:04;;;;;;;45.25;34.15;;;;;;;;;;4332655;33;20082;-63
2022/09/11 00:38:30;;;;;;;45.08;34.30;;;;;;;;;;4333389;33;20054;-63
2022/09/11 00:40:59;;;;;;;38.53;31.60;;;;;;;;;;4330097;33;20063;-63
2022/09/11 00:43:25;;;;;;;42.45;34.55;;;;;;;;;;4331934;33;20106;-64
2022/09/11 00:45:59;;;;;;;49.17;36.35;;;;;;;;;;4332197;33;20036;-64
2022/09/11 00:48:25;;;;;;;39.60;34.70;;;;;;;;;;4330493;33;20442;-64
2022/09/11 00:50:51;;;;;;;47.42;34.13;;;;;;;;;;4332259;33;20032;-65
2022/09/11 00:53:17;;;;;;;43.47;34.13;;;;;;;;;;4330928;33;20179;-64
2022/09/11 00:55:46;;;;;;;48.08;36.25;;;;;;;;;;4330724;33;20036;-64
2022/09/11 00:58:13;;;;;;;43.38;32.63;;;;;;;;;;4329510;33;20043;-63
2022/09/11 01:00:39;;;;;;;39.85;31.33;;;;;;;;;;4339981;33;20414;-63
2022/09/11 01:03:04;;;;;;;40.78;31.10;;;;;;;;;;4344822;33;20090;-63
2022/09/11 01:05:33;;;;;;;41.50;31.10;;;;;;;;;;4346487;33;20031;-64
2022/09/11 01:07:59;;;;;;;39.10;31.25;;;;;;;;;;4346493;33;20031;-63
2022/09/11 01:10:43;;;;;;;39.83;32.22;;;;;;;;;;4345538;33;20046;-63
2022/09/11 01:13:08;;;;;;;38.58;31.12;;;;;;;;;;4345383;33;20374;-63
2022/09/11 01:15:42;;;;;;;39.75;32.53;;;;;;;;;;4346562;33;20082;-63
2022/09/11 01:18:19;;;;;;;37.92;31.92;;;;;;;;;;4344418;33;20238;-65
2022/09/11 01:20:50;;;;;;;37.33;30.67;;;;;;;;;;4330552;33;20105;-63
2022/09/11 01:23:18;;;;;;;35.92;29.92;;;;;;;;;;4337672;33;20419;-64
2022/09/11 01:25:46;;;;;;;36.30;30.92;;;;;;;;;;4330436;33;20660;-65
2022/09/11 01:28:15;;;;;;;41.80;33.38;;;;;;;;;;4334436;33;20035;-62
2022/09/11 01:30:46;;;;;;;41.50;33.45;;;;;;;;;;4335063;33;20462;-63
2022/09/11 01:33:35;;;;;;;39.55;31.58;;;;;;;;;;4331332;33;20395;-64
2022/09/11 01:36:05;;;;;;;43.03;33.38;;;;;;;;;;4329453;33;20426;-64
2022/09/11 01:38:37;;;;;;;50.03;38.13;;;;;;;;;;4329166;33;20057;-64
2022/09/11 01:41:39;;;;;;;51.03;36.60;;;;;;;;;;4339568;33;20094;-62
2022/09/11 01:44:21;;;;;;;41.75;33.55;;;;;;;;;;4300324;33;20100;-63
2022/09/11 01:46:49;;;;;;;36.80;32.30;;;;;;;;;;4340975;33;20063;-64
2022/09/11 01:49:34;;;;;;;39.50;32.33;;;;;;;;;;4346417;33;20043;-64
2022/09/11 01:52:01;;;;;;;40.17;32.90;;;;;;;;;;4346320;33;20414;-64
2022/09/11 01:54:29;;;;;;;37.78;32.10;;;;;;;;;;4342393;33;20378;-64
2022/09/11 01:56:59;;;;;;;46.13;36.88;;;;;;;;;;4331001;33;20099;-62
2022/09/11 01:59:30;;;;;;;44.15;34.38;;;;;;;;;;4329841;33;20031;-64
2022/09/11 02:02:01;;;;;;;40.95;33.45;;;;;;;;;;4330321;33;20059;-63
2022/09/11 02:04:28;;;;;;;41.70;35.30;;;;;;;;;;4330525;33;20391;-64
2022/09/11 02:06:58;;;;;;;46.78;37.22;;;;;;;;;;4331996;33;20053;-63
2022/09/11 02:09:26;;;;;;;46.83;34.03;;;;;;;;;;4330646;33;20032;-64
2022/09/11 02:11:52;;;;;;;41.35;33.13;;;;;;;;;;4345185;33;20036;-64
2022/09/11 02:14:20;;;;;;;40.55;31.62;;;;;;;;;;4346708;33;20036;-63
2022/09/11 02:16:49;;;;;;;47.42;36.05;;;;;;;;;;4346144;33;20421;-62
2022/09/11 02:19:16;;;;;;;46.13;36.03;;;;;;;;;;4344827;33;20065;-65
2022/09/11 02:21:42;;;;;;;54.50;38.22;;;;;;;;;;4346079;33;20110;-64
2022/09/11 02:24:08;;;;;;;59.40;42.33;;;;;;;;;;4342564;33;20082;-63
2022/09/11 02:26:38;;;;;;;53.35;40.30;;;;;;;;;;4329573;33;20058;-63
2022/09/11 02:29:03;;;;;;;50.20;38.00;;;;;;;;;;4331869;33;20036;-62
2022/09/11 02:31:29;;;;;;;42.22;34.20;;;;;;;;;;4330264;33;20074;-64
2022/09/11 02:33:54;;;;;;;47.28;35.47;;;;;;;;;;4330187;33;20090;-64
2022/09/11 02:36:34;;;;;;;55.10;37.28;;;;;;;;;;4330822;33;20028;-63
2022/09/11 02:39:08;;;;;;;43.42;34.67;;;;;;;;;;4327903;33;20103;-63
2022/09/11 02:41:54;;;;;;;52.25;37.55;;;;;;;;;;4345811;33;20032;-63
2022/09/11 02:44:30;;;;;;;49.17;38.20;;;;;;;;;;4321754;33;20077;-63
2022/09/11 02:46:55;;;;;;;;;;;;;;;;;;4330613;33;20031;-63
2022/09/11 02:49:25;;;;;;;45.53;36.30;;;;;;;;;;4331192;33;20363;-64
2022/09/11 02:51:59;;;;;;;47.62;37.28;;;;;;;;;;4333696;33;20067;-63
2022/09/11 02:54:30;;;;;;;51.20;36.97;;;;;;;;;;4338271;33;20042;-65
2022/09/11 02:57:14;;;;;;;47.40;34.95;;;;;;;;;;4347652;33;20464;-63
2022/09/11 02:59:42;;;;;;;49.85;38.70;;;;;;;;;;4338075;33;20027;-63
2022/09/11 03:02:12;;;;;;;53.45;40.35;;;;;;;;;;4333541;33;20055;-64
2022/09/11 03:04:37;;;;;;;51.75;38.00;;;;;;;;;;4333230;33;20146;-63
2022/09/11 03:07:02;;;;;;;45.05;36.22;;;;;;;;;;4332931;33;20040;-63
2022/09/11 03:09:27;;;;;;;48.25;35.63;;;;;;;;;;4340113;33;20069;-64
2022/09/11 03:11:53;;;;;;;50.47;38.55;;;;;;;;;;4338973;33;20088;-63
2022/09/11 03:14:19;;;;;;;45.40;35.08;;;;;;;;;;4330732;33;20458;-63
2022/09/11 03:16:44;;;;;;;53.22;37.05;;;;;;;;;;4342778;33;20058;-63
2022/09/11 03:19:10;;;;;;;49.33;36.95;;;;;;;;;;4333359;33;20020;-64
2022/09/11 03:21:36;;;;;;;49.90;37.10;;;;;;;;;;4331874;33;20060;-64
2022/09/11 03:24:02;;;;;;;43.60;34.88;;;;;;;;;;4331659;33;20062;-63
2022/09/11 03:26:28;;;;;;;60.25;38.63;;;;;;;;;;4331309;33;20074;-63
2022/09/11 03:28:53;;;;;;;57.85;40.72;;;;;;;;;;4333639;33;20383;-63
2022/09/11 03:31:19;;;;;;;65.25;44.22;;;;;;;;;;4333491;33;20050;-63
2022/09/11 03:33:44;;;;;;;49.28;38.85;;;;;;;;;;4332468;33;20028;-63
2022/09/11 03:36:09;;;;;;;47.95;37.75;;;;;;;;;;4333407;33;20024;-64
2022/09/11 03:38:34;;;;;;;61.13;41.20;;;;;;;;;;4335865;33;20125;-63
2022/09/11 03:41:02;;;;;;;52.10;39.37;;;;;;;;;;4344943;33;20047;-64
2022/09/11 03:43:27;;;;;;;49.50;37.72;;;;;;;;;;4346968;33;20159;-64
2022/09/11 03:45:52;;;;;;;58.80;42.08;;;;;;;;;;4333192;33;20019;-64
2022/09/11 03:48:18;;;;;;;61.60;43.22;;;;;;;;;;4348369;33;20081;-64
2022/09/11 03:50:44;;;;;;;60.35;42.58;;;;;;;;;;4348291;33;20047;-63
2022/09/11 03:53:10;;;;;;;54.88;40.88;;;;;;;;;;4343996;33;20095;-63
2022/09/11 03:55:35;;;;;;;63.40;44.40;;;;;;;;;;4331554;33;20054;-63
2022/09/11 03:58:01;;;;;;;61.88;42.72;;;;;;;;;;4332758;33;20033;-63
2022/09/11 04:00:26;;;;;;;69.95;45.97;;;;;;;;;;4333396;33;20538;-63
2022/09/11 04:02:51;;;;;;;70.57;45.33;;;;;;;;;;4331953;33;20391;-63
2022/09/11 04:05:16;;;;;;;71.43;47.40;;;;;;;;;;4332672;33;20059;-63
2022/09/11 04:07:41;;;;;;;74.05;47.38;;;;;;;;;;4332766;33;20036;-63
2022/09/11 04:10:07;;;;;;;64.28;42.75;;;;;;;;;;4346580;33;20098;-64
2022/09/11 04:12:32;;;;;;;71.75;45.97;;;;;;;;;;4347962;33;20031;-63
2022/09/11 04:14:57;;;;;;;69.18;47.17;;;;;;;;;;4345806;33;20456;-63
2022/09/11 04:17:23;;;;;;;66.70;44.83;;;;;;;;;;4327578;33;20431;-63
2022/09/11 04:19:48;;;;;;;61.42;43.92;;;;;;;;;;4332217;33;20132;-63
2022/09/11 04:22:13;;;;;;;69.95;47.33;;;;;;;;;;4331063;33;20452;-63
2022/09/11 04:24:38;;;;;;;67.05;44.10;;;;;;;;;;4342937;33;20366;-63
2022/09/11 04:27:04;;;;;;;57.65;41.33;;;;;;;;;;4346074;33;20135;-63
2022/09/11 04:29:31;;;;;;;57.88;41.22;;;;;;;;;;4345761;33;20366;-63
2022/09/11 04:31:56;;;;;;;59.75;42.00;;;;;;;;;;4346624;33;20046;-63
2022/09/11 04:34:21;;;;;;;68.93;44.63;;;;;;;;;;4345870;33;20039;-64
2022/09/11 04:36:46;;;;;;;68.03;46.13;;;;;;;;;;4346948;33;20469;-63
2022/09/11 04:39:12;;;;;;;51.75;38.38;;;;;;;;;;4334117;33;20077;-63
2022/09/11 04:41:37;;;;;;;62.45;43.33;;;;;;;;;;4332525;33;20023;-63
2022/09/11 04:44:02;;;;;;;57.63;41.23;;;;;;;;;;4332724;33;20062;-63
2022/09/11 04:46:28;;;;;;;64.30;43.20;;;;;;;;;;4330102;33;20176;-63
2022/09/11 04:48:54;;;;;;;73.40;47.40;;;;;;;;;;4331813;33;20028;-64
2022/09/11 04:51:21;;;;;;;76.15;46.60;;;;;;;;;;4329799;33;20187;-63
2022/09/11 04:53:47;;;;;;;72.32;48.03;;;;;;;;;;4341777;33;20086;-63
2022/09/11 04:56:12;;;;;;;71.72;48.53;;;;;;;;;;4346521;33;20035;-63
2022/09/11 04:58:38;;;;;;;64.90;43.85;;;;;;;;;;4345396;33;20047;-63
2022/09/11 05:01:12;;;;;;;79.82;50.38;;;;;;;;;;4344393;33;20452;-64
2022/09/11 05:03:37;;;;;;;69.22;48.80;;;;;;;;;;4346924;33;20097;-64
2022/09/11 05:06:06;;;;;;;56.58;41.88;;;;;;;;;;4345510;33;20032;-64
2022/09/11 05:08:35;;;;;;;71.93;46.13;;;;;;;;;;4331492;33;20048;-64
2022/09/11 05:11:01;;;;;;;75.65;49.88;;;;;;;;;;4327522;33;20099;-64
2022/09/11 05:13:26;;;;;;;72.68;47.38;;;;;;;;;;4329804;33;20111;-64
2022/09/11 05:15:52;;;;;;;82.20;49.88;;;;;;;;;;4329604;33;20474;-64
2022/09/11 05:18:17;;;;;;;84.47;52.85;;;;;;;;;;4330698;33;20056;-65
2022/09/11 05:20:42;;;;;;;79.93;51.28;;;;;;;;;;4344496;33;20403;-63
2022/09/11 05:23:09;;;;;;;81.55;49.95;;;;;;;;;;4339511;33;20026;-63
2022/09/11 05:25:35;;;;;;;84.72;50.50;;;;;;;;;;4345178;33;20417;-64
2022/09/11 05:28:01;;;;;;;82.82;50.75;;;;;;;;;;4346761;33;20040;-64
2022/09/11 05:30:27;;;;;;;85.70;52.28;;;;;;;;;;4346684;33;20192;-64
2022/09/11 05:32:54;;;;;;;89.68;51.92;;;;;;;;;;4346009;33;20078;-63
2022/09/11 05:35:19;;;;;;;74.85;48.97;;;;;;;;;;4344676;33;20066;-63
2022/09/11 05:37:45;;;;;;;81.82;51.92;;;;;;;;;;4346527;33;20032;-63
2022/09/11 05:40:11;;;;;;;79.45;49.72;;;;;;;;;;4339285;33;20094;-62
2022/09/11 05:42:37;;;;;;;81.55;50.83;;;;;;;;;;4331452;33;20032;-63
2022/09/11 05:45:02;;;;;;;82.95;52.42;;;;;;;;;;4330445;33;20050;-63
2022/09/11 05:47:27;;;;;;;79.90;50.90;;;;;;;;;;4331480;33;20028;-63
2022/09/11 05:49:53;;;;;;;76.93;50.10;;;;;;;;;;4330125;33;20066;-63
2022/09/11 05:52:18;;;;;;;72.95;48.75;;;;;;;;;;4331793;33;20121;-63
2022/09/11 05:54:43;;;;;;;77.70;48.53;;;;;;;;;;4334409;33;20070;-63
2022/09/11 05:57:08;;;;;;;76.82;48.05;;;;;;;;;;4345434;33;20095;-63
2022/09/11 05:59:33;;;;;;;77.10;47.30;;;;;;;;;;4345910;33;20035;-62
2022/09/11 06:01:58;;;;;;;77.62;46.80;;;;;;;;;;4346359;33;20124;-63
2022/09/11 06:04:24;;;;;;;73.05;47.47;;;;;;;;;;4345712;33;20028;-63
2022/09/11 06:06:49;;;;;;;76.23;47.53;;;;;;;;;;4344334;33;20423;-63
2022/09/11 06:09:14;;;;;;;81.80;52.53;;;;;;;;;;4341980;33;20169;-65
2022/09/11 06:11:39;;;;;;;74.67;47.70;;;;;;;;;;4329200;33;20092;-64
2022/09/11 06:14:05;;;;;;;64.78;42.45;;;;;;;;;;4330340;33;20125;-64
2022/09/11 06:16:30;;;;;;;64.10;44.25;;;;;;;;;;4338065;33;20028;-64
2022/09/11 06:18:56;;;;;;;66.57;44.58;;;;;;;;;;4346117;33;20070;-63
2022/09/11 06:21:22;;;;;;;68.55;46.13;;;;;;;;;;4346417;33;20036;-62
2022/09/11 06:23:48;;;;;;;70.22;43.97;;;;;;;;;;4343821;33;20397;-63
2022/09/11 06:26:14;;;;;;;69.95;47.10;;;;;;;;;;4321162;33;20111;-64
2022/09/11 06:28:40;;;;;;;70.95;47.80;;;;;;;;;;4332543;33;20078;-63
2022/09/11 06:31:15;;;;;;;65.40;43.53;;;;;;;;;;4333014;33;20019;-63
2022/09/11 06:33:40;;;;;;;76.57;48.95;;;;;;;;;;4333904;33;20327;-63
2022/09/11 06:36:06;;;;;;;67.75;46.70;;;;;;;;;;4333784;33;20087;-64
2022/09/11 06:38:32;;;;;;;76.75;48.47;;;;;;;;;;4333929;33;20032;-63
2022/09/11 06:41:01;;;;;;;70.55;45.92;;;;;;;;;;4346248;33;20104;-63
2022/09/11 06:43:26;;;;;;;68.32;45.15;;;;;;;;;;4333137;33;20100;-63
2022/09/11 06:45:52;;;;;;;61.22;43.92;;;;;;;;;;4331504;33;20058;-63
2022/09/11 06:48:18;;;;;;;62.83;43.50;;;;;;;;;;4331529;33;20058;-64
2022/09/11 06:50:43;;;;;;;59.92;42.85;;;;;;;;;;4338470;33;20093;-64
2022/09/11 06:53:09;;;;;;;56.92;42.97;;;;;;;;;;4326396;33;20029;-63
2022/09/11 06:55:34;;;;;;;49.05;37.50;;;;;;;;;;4333326;33;20039;-63
2022/09/11 06:57:59;;;;;;;53.85;38.22;;;;;;;;;;4332496;33;20070;-63
2022/09/11 07:00:25;;;;;;;44.30;34.30;;;;;;;;;;4332730;33;20046;-64
2022/09/11 07:02:51;;;;;;;47.47;33.63;;;;;;;;;;4331923;33;20687;-63
2022/09/11 07:05:17;;;;;;;45.58;33.30;;;;;;;;;;4332407;33;20050;-64
2022/09/11 07:07:42;;;;;;;46.20;34.15;;;;;;;;;;4333623;33;20346;-63
2022/09/11 07:10:09;;;;;;;42.22;33.67;;;;;;;;;;4336217;33;20067;-63
2022/09/11 07:12:35;;;;;;;42.90;34.30;;;;;;;;;;4347188;33;20402;-63
2022/09/11 07:15:00;;;;;;;44.75;34.30;;;;;;;;;;4346416;33;20055;-63
2022/09/11 07:17:25;;;;;;;46.45;34.20;;;;;;;;;;4337365;33;20143;-63
2022/09/11 07:19:51;;;;;;;38.20;33.53;;;;;;;;;;4332170;33;20125;-64
2022/09/11 07:22:16;;;;;;;40.88;31.95;;;;;;;;;;4332638;33;20133;-65
2022/09/11 07:24:41;;;;;;;37.00;30.50;;;;;;;;;;4332672;33;20383;-64
2022/09/11 07:27:07;;;;;;;33.25;29.75;;;;;;;;;;4331299;33;20179;-63
2022/09/11 07:29:32;;;;;;;31.80;28.30;;;;;;;;;;4331556;33;20552;-63
2022/09/11 07:31:58;;;;;;;31.92;28.52;;;;;;;;;;4340891;33;20432;-64
2022/09/11 07:34:24;;;;;;;34.45;30.23;;;;;;;;;;4347424;33;20036;-64
2022/09/11 07:36:52;;;;;;;37.53;31.77;;;;;;;;;;4345407;33;20086;-64
2022/09/11 07:39:17;;;;;;;32.97;29.48;;;;;;;;;;4346647;33;20063;-63
2022/09/11 07:41:42;;;;;;;31.62;28.20;;;;;;;;;;4344404;33;20362;-62
2022/09/11 07:44:07;;;;;;;31.45;27.05;;;;;;;;;;4332740;33;20035;-64
2022/09/11 07:46:34;;;;;;;30.85;26.27;;;;;;;;;;4331377;33;20024;-64
2022/09/11 07:49:01;;;;;;;29.63;26.40;;;;;;;;;;4331461;33;20031;-64
2022/09/11 07:51:27;;;;;;;30.27;27.10;;;;;;;;;;4331180;33;20040;-63
2022/09/11 07:53:53;;;;;;;29.15;26.15;;;;;;;;;;4330663;33;20024;-64
2022/09/11 07:56:22;;;;;;;29.60;26.40;;;;;;;;;;4330221;33;20027;-64
2022/09/11 07:58:48;;;;;;;25.85;23.15;;;;;;;;;;4332652;33;20097;-64
2022/09/11 08:01:15;;;;;;;30.92;25.17;;;;;;;;;;4340063;33;20047;-64
2022/09/11 08:03:41;;;;;;;27.00;24.17;;;;;;;;;;4343529;33;20347;-64
2022/09/11 08:06:09;;;;;;;21.65;17.65;;;;;;;;;;4346008;33;20110;-64
2022/09/11 08:08:34;;;;;;;21.85;19.75;;;;;;;;;;4346108;33;20123;-64
2022/09/11 08:11:06;;;;;;;20.88;18.67;;;;;;;;;;4344029;33;20020;-64
2022/09/11 08:13:32;;;;;;;19.55;17.27;;;;;;;;;;4331396;33;20449;-63
2022/09/11 08:15:57;;;;;;;22.37;17.60;;;;;;;;;;4331331;33;20074;-63
2022/09/11 08:18:23;;;;;;;21.27;18.15;;;;;;;;;;4333079;33;20037;-64
2022/09/11 08:20:48;;;;;;;14.77;13.35;;;;;;;;;;4345412;33;20074;-64
2022/09/11 08:23:14;;;;;;;16.73;13.65;;;;;;;;;;4345680;33;20039;-64
2022/09/11 08:25:40;;;;;;;16.35;14.68;;;;;;;;;;4346407;33;20345;-66
2022/09/11 08:28:06;;;;;;;23.33;16.70;;;;;;;;;;4338877;33;20093;-64
2022/09/11 08:30:32;;;;;;;14.87;13.35;;;;;;;;;;4334829;33;20166;-64
2022/09/11 08:32:58;;;;;;;14.85;12.80;;;;;;;;;;4346581;33;20189;-64
2022/09/11 08:35:23;;;;;;;13.95;11.65;;;;;;;;;;4346095;33;20031;-65
2022/09/11 08:37:49;;;;;;;11.38;10.25;;;;;;;;;;4345654;33;20467;-63
2022/09/11 08:40:14;;;;;;;13.65;9.32;;;;;;;;;;4338026;33;20445;-65
2022/09/11 08:42:41;;;;;;;12.93;9.10;;;;;;;;;;4332194;33;20105;-64
2022/09/11 08:45:13;;;;;;;10.50;7.93;;;;;;;;;;4333406;33;20035;-64
2022/09/11 08:47:39;;;;;;;8.85;7.22;;;;;;;;;;4345741;33;20032;-64
2022/09/11 08:50:11;;;;;;;11.38;8.65;;;;;;;;;;4330242;33;20054;-65
2022/09/11 08:52:36;;;;;;;10.32;7.75;;;;;;;;;;4341700;33;20044;-63
2022/09/11 08:55:01;;;;;;;6.80;5.95;;;;;;;;;;4344497;33;20481;-65
2022/09/11 08:57:45;;;;;;;8.10;4.90;;;;;;;;;;4344250;33;20067;-65
2022/09/11 09:00:20;;;;;;;9.77;6.43;;;;;;;;;;4330240;33;20442;-64
2022/09/11 09:02:51;;;;;;;6.75;6.03;;;;;;;;;;4331570;33;20027;-65
2022/09/11 09:05:33;;;;;;;9.40;5.50;;;;;;;;;;4330072;33;20043;-65
2022/09/11 09:07:58;;;;;;;8.23;6.22;;;;;;;;;;4324093;33;20509;-64
2022/09/11 09:10:32;;;;;;;11.75;7.50;;;;;;;;;;4315145;33;20032;-66
2022/09/11 09:12:57;;;;;;;5.75;4.18;;;;;;;;;;4328624;33;20098;-65
2022/09/11 09:15:40;;;;;;;5.43;3.40;;;;;;;;;;4331002;33;20091;-66
2022/09/11 09:18:24;;;;;;;4.47;3.62;;;;;;;;;;4330456;33;20155;-66
2022/09/11 09:20:56;;;;;;;4.95;3.70;;;;;;;;;;4330527;33;20121;-64
2022/09/11 09:23:24;;;;;;;8.35;4.65;;;;;;;;;;4331435;33;20090;-65
2022/09/11 09:25:52;;;;;;;7.85;4.35;;;;;;;;;;4335884;33;20043;-65
2022/09/11 09:28:25;;;;;;;7.95;4.10;;;;;;;;;;4335948;33;20063;-65
2022/09/11 09:30:53;;;;;;;7.00;4.95;;;;;;;;;;4334426;33;20032;-64
2022/09/11 09:33:27;;;;;;;9.20;4.90;;;;;;;;;;4343434;33;20493;-64
2022/09/11 09:35:53;;;;;;;5.10;3.33;;;;;;;;;;4341197;33;20470;-65
2022/09/11 09:38:22;;;;;;;8.30;3.62;;;;;;;;;;4333380;33;20057;-65
2022/09/11 09:40:58;;;;;;;6.25;3.72;;;;;;;;;;4335418;33;20079;-64
2022/09/11 09:43:23;;;;;;;7.35;3.80;;;;;;;;;;4331504;33;20032;-64
2022/09/11 09:45:55;;;;;;;7.07;4.07;;;;;;;;;;4336718;33;20060;-64
2022/09/11 09:48:20;;;;;;;9.48;4.18;;;;;;;;;;4331270;33;20120;-64
2022/09/11 09:50:46;;;;;;;6.32;3.53;;;;;;;;;;4329979;33;20020;-65
2022/09/11 09:53:15;;;;;;;8.07;2.72;;;;;;;;;;4331272;33;20040;-64
2022/09/11 09:55:41;;;;;;;9.52;3.67;;;;;;;;;;4344795;33;20054;-65
2022/09/11 09:58:06;;;;;;;6.15;2.80;;;;;;;;;;4342188;33;20403;-64
2022/09/11 10:00:34;;;;;;;5.43;2.70;;;;;;;;;;4331673;33;20054;-64
2022/09/11 10:03:12;;;;;;;7.40;3.05;;;;;;;;;;4333206;33;20028;-64
2022/09/11 10:05:41;;;;;;;4.35;3.28;;;;;;;;;;4333060;33;20130;-64
2022/09/11 10:08:21;;;;;;;5.43;3.20;;;;;;;;;;4332698;33;20465;-65
2022/09/11 10:10:55;;;;;;;9.02;4.87;;;;;;;;;;4331248;33;20028;-63
2022/09/11 10:13:23;;;;;;;6.68;3.70;;;;;;;;;;4343917;33;20421;-67
2022/09/11 10:15:49;;;;;;;6.32;3.33;;;;;;;;;;4331671;33;20103;-64
2022/09/11 10:18:29;;;;;;;13.62;4.85;;;;;;;;;;4334742;33;20099;-64
2022/09/11 10:21:10;;;;;;;6.45;3.70;;;;;;;;;;4333185;33;20058;-64
2022/09/11 10:23:42;;;;;;;6.85;3.83;;;;;;;;;;4334201;33;20082;-64
2022/09/11 10:26:13;;;;;;;6.87;3.60;;;;;;;;;;4332875;33;20056;-64
2022/09/11 10:28:38;;;;;;;9.10;3.62;;;;;;;;;;4332542;33;20075;-64
2022/09/11 10:31:04;;;;;;;8.57;3.83;;;;;;;;;;4332274;33;20055;-65
2022/09/11 10:33:29;;;;;;;6.20;4.30;;;;;;;;;;4331243;33;20058;-65
2022/09/11 10:35:54;;;;;;;5.78;4.00;;;;;;;;;;4320491;33;20059;-64
2022/09/11 10:38:22;;;;;;;8.60;4.37;;;;;;;;;;4333025;33;20067;-64
2022/09/11 10:41:00;;;;;;;9.13;4.22;;;;;;;;;;4331787;33;20482;-64
2022/09/11 10:43:31;;;;;;;4.97;3.28;;;;;;;;;;4331804;33;20032;-65
2022/09/11 10:46:00;;;;;;;7.35;3.67;;;;;;;;;;4330980;33;20075;-63
2022/09/11 10:48:26;;;;;;;8.93;4.28;;;;;;;;;;4345521;33;20040;-64
2022/09/11 10:51:04;;;;;;;8.38;4.10;;;;;;;;;;4346112;33;20082;-65
2022/09/11 10:53:32;;;;;;;5.03;3.53;;;;;;;;;;4346532;33;20019;-65
2022/09/11 10:55:59;;;;;;;5.53;3.50;;;;;;;;;;4347846;33;20519;-65
2022/09/11 10:58:29;;;;;;;6.53;3.50;;;;;;;;;;4345517;33;20053;-64
2022/09/11 11:00:54;;;;;;;6.30;4.22;;;;;;;;;;4336731;33;20075;-66
2022/09/11 11:03:23;;;;;;;8.63;3.95;;;;;;;;;;4324332;33;20044;-64
2022/09/11 11:06:03;;;;;;;5.32;3.12;;;;;;;;;;4331380;33;20056;-65
2022/09/11 11:08:47;;;;;;;8.50;3.35;;;;;;;;;;4331753;33;20027;-64
2022/09/11 11:11:13;;;;;;;9.50;4.00;;;;;;;;;;4331225;33;20067;-64
2022/09/11 11:13:56;;;;;;;5.97;3.28;;;;;;;;;;4331546;33;20028;-64
2022/09/11 11:16:26;;;;;;;7.80;2.87;;;;;;;;;;4333139;33;20023;-65
2022/09/11 11:18:53;;;;;;;6.37;3.12;;;;;;;;;;4332714;33;20058;-67
2022/09/11 11:21:24;;;;;;;5.32;3.28;;;;;;;;;;4333068;33;20071;-64
2022/09/11 11:23:55;;;;;;;5.82;2.55;;;;;;;;;;4331893;33;20063;-63
2022/09/11 11:26:20;;;;;;;5.70;2.55;;;;;;;;;;4331072;33;20080;-67
2022/09/11 11:28:55;;;;;;;6.30;2.85;;;;;;;;;;4331914;33;20023;-64
2022/09/11 11:31:38;;;;;;;6.65;2.67;;;;;;;;;;4331854;33;20371;-65
2022/09/11 11:34:23;;;;;;;5.30;2.30;;;;;;;;;;4318732;33;20025;-65
2022/09/11 11:37:02;;;;;;;5.43;2.72;;;;;;;;;;4331727;33;20079;-64
2022/09/11 11:39:29;;;;;;;8.13;3.00;;;;;;;;;;4330897;33;20044;-65
2022/09/11 11:42:13;;;;;;;5.07;2.70;;;;;;;;;;4331407;33;20181;-65
2022/09/11 11:44:42;;;;;;;4.97;2.95;;;;;;;;;;4343579;33;20470;-66
2022/09/11 11:47:09;;;;;;;4.53;2.37;;;;;;;;;;4347223;33;20466;-63
2022/09/11 11:49:37;;;;;;;6.03;2.87;;;;;;;;;;4344664;33;20493;-65
2022/09/11 11:52:08;;;;;;;5.07;2.65;;;;;;;;;;4340167;33;20023;-65
2022/09/11 11:54:54;;;;;;;8.00;3.47;;;;;;;;;;4332590;33;20111;-64
2022/09/11 11:57:21;;;;;;;7.60;3.00;;;;;;;;;;4331953;33;20041;-64
2022/09/11 11:59:54;;;;;;;3.53;2.30;;;;;;;;;;4331492;33;20422;-63
2022/09/11 12:02:22;;;;;;;6.87;2.75;;;;;;;;;;4330991;33;20023;-65
2022/09/11 12:04:50;;;;;;;6.65;3.12;;;;;;;;;;4343691;33;20073;-64
2022/09/11 12:07:21;;;;;;;4.32;2.30;;;;;;;;;;4333408;33;20024;-64
2022/09/11 12:09:48;;;;;;;4.93;2.50;;;;;;;;;;4330485;33;20054;-64
2022/09/11 12:12:15;;;;;;;6.30;2.85;;;;;;;;;;4331125;33;20027;-64
2022/09/11 12:14:47;;;;;;;3.92;2.33;;;;;;;;;;4330820;33;20044;-65
2022/09/11 12:17:22;;;;;;;6.20;2.08;;;;;;;;;;4331402;33;20066;-65
2022/09/11 12:19:47;;;;;;;;;;;;;;;;;;4332795;33;20067;-66
2022/09/11 12:22:13;;;;;;;8.35;2.85;;;;;;;;;;4331031;33;19950;-65
2022/09/11 12:24:49;;;;;;;4.30;2.78;;;;;;;;;;4331848;33;20031;-64
2022/09/11 12:27:32;;;;;;;5.75;2.45;;;;;;;;;;4329969;33;20035;-65
2022/09/11 12:30:06;;;;;;;5.70;2.22;;;;;;;;;;4332171;33;20035;-65
2022/09/11 12:32:42;;;;;;;8.55;2.30;;;;;;;;;;4331062;33;20123;-64
2022/09/11 12:35:18;;;;;;;6.97;2.35;;;;;;;;;;4331673;33;20154;-65
2022/09/11 12:37:46;;;;;;;3.67;2.08;;;;;;;;;;4331875;33;20039;-65
2022/09/11 12:40:15;;;;;;;6.35;2.47;;;;;;;;;;4330015;33;20049;-65
2022/09/11 12:42:40;;;;;;;4.53;2.00;;;;;;;;;;4331464;33;20040;-65
2022/09/11 12:45:26;;;;;;;4.47;2.20;;;;;;;;;;4330792;33;20035;-63
2022/09/11 12:47:52;;;;;;;3.20;1.83;;;;;;;;;;4329960;33;20028;-63
2022/09/11 12:50:20;;;;;;;6.45;2.65;;;;;;;;;;4330586;33;20083;-64
2022/09/11 12:52:53;;;;;;;4.40;1.92;;;;;;;;;;4330468;33;20058;-64
2022/09/11 12:55:28;;;;;;;5.72;2.80;;;;;;;;;;4331697;33;20058;-65
2022/09/11 12:57:53;;;;;;;4.20;2.10;;;;;;;;;;4329758;33;20054;-65
2022/09/11 13:00:48;;;;;;;6.97;2.60;;;;;;;;;;4329188;33;20414;-66
2022/09/11 13:03:16;;;;;;;7.00;4.43;;;;;;;;;;4323490;33;20040;-65
2022/09/11 13:05:44;;;;;;;5.82;1.90;;;;;;;;;;4331883;33;20027;-64
2022/09/11 13:08:22;;;;;;;4.18;1.90;;;;;;;;;;4329863;33;20075;-65
2022/09/11 13:10:48;;;;;;;5.82;2.00;;;;;;;;;;4338731;33;20070;-65
2022/09/11 13:13:32;;;;;;;4.75;2.22;;;;;;;;;;4344738;33;20054;-65
2022/09/11 13:15:57;;;;;;;5.72;2.35;;;;;;;;;;4345723;33;20031;-66
2022/09/11 13:18:34;;;;;;;3.97;1.80;;;;;;;;;;4345240;33;20414;-66
2022/09/11 13:21:00;;;;;;;5.12;2.12;;;;;;;;;;4343557;33;20036;-64
2022/09/11 13:23:27;;;;;;;6.32;2.33;;;;;;;;;;4331670;33;20096;-65
2022/09/11 13:25:54;;;;;;;6.37;2.37;;;;;;;;;;4336412;33;20035;-65
2022/09/11 13:28:19;;;;;;;3.05;1.92;;;;;;;;;;4331769;33;20115;-65
2022/09/11 13:31:11;;;;;;;4.43;1.85;;;;;;;;;;4340100;33;20032;-65
2022/09/11 13:33:39;;;;;;;4.55;2.05;;;;;;;;;;4342947;33;20047;-64
2022/09/11 13:36:05;;;;;;;6.57;2.00;;;;;;;;;;4330044;33;20054;-64
2022/09/11 13:38:34;;;;;;;5.78;2.22;;;;;;;;;;4315000;33;20052;-65
2022/09/11 13:41:05;;;;;;;4.22;2.15;;;;;;;;;;4315051;33;20041;-64
2022/09/11 13:43:34;;;;;;;4.20;2.15;;;;;;;;;;4342765;33;20409;-63
2022/09/11 13:46:09;;;;;;;5.85;2.40;;;;;;;;;;4345773;33;20093;-64
2022/09/11 13:48:35;;;;;;;5.50;2.10;;;;;;;;;;4344660;33;20406;-63
2022/09/11 13:51:03;;;;;;;2.95;1.77;;;;;;;;;;4344733;33;20139;-64
2022/09/11 13:53:29;;;;;;;4.75;2.00;;;;;;;;;;4324962;33;20044;-63
2022/09/11 13:55:54;;;;;;;3.55;1.80;;;;;;;;;;4315516;33;20059;-65
2022/09/11 13:58:24;;;;;;;3.55;2.33;;;;;;;;;;4321947;33;20118;-65
2022/09/11 14:00:51;;;;;;;4.47;2.20;;;;;;;;;;4339939;33;20031;-64
2022/09/11 14:03:19;;;;;;;3.20;1.58;;;;;;;;;;4346032;33;20047;-64
2022/09/11 14:05:52;;;;;;;4.18;2.17;;;;;;;;;;4332542;33;20041;-65
2022/09/11 14:08:18;;;;;;;4.70;1.92;;;;;;;;;;4331965;33;20066;-64
2022/09/11 14:10:46;;;;;;;5.20;2.00;;;;;;;;;;4329975;33;20058;-64
2022/09/11 14:13:13;;;;;;;3.25;1.85;;;;;;;;;;4339353;33;20027;-64
2022/09/11 14:15:41;;;;;;;4.22;2.12;;;;;;;;;;4345784;33;20055;-64
2022/09/11 14:18:11;;;;;;;5.47;1.90;;;;;;;;;;4333761;33;20390;-65
2022/09/11 14:20:39;;;;;;;3.05;1.90;;;;;;;;;;4330321;33;20043;-65
2022/09/11 14:23:05;;;;;;;6.00;2.15;;;;;;;;;;4335204;33;20028;-65
2022/09/11 14:25:31;;;;;;;4.43;2.30;;;;;;;;;;4332618;33;20051;-65
2022/09/11 14:27:57;;;;;;;3.65;1.80;;;;;;;;;;4332791;33;20350;-65
2022/09/11 14:30:23;;;;;;;5.28;3.00;;;;;;;;;;4340127;33;20027;-63
2022/09/11 14:33:04;;;;;;;3.12;2.08;;;;;;;;;;4332721;33;20035;-64
2022/09/11 14:35:30;;;;;;;3.78;2.37;;;;;;;;;;4345519;33;20023;-64
2022/09/11 14:37:55;;;;;;;3.28;1.90;;;;;;;;;;4335763;33;20082;-64